Hadsund, Denmark
Current Conditions -  °F | °C
As of 12:20 AM on Thursday 18 Dec 2014 (Local Time) from EKYT Reporting Station
Haze Haze  
Wind Chill: 32°   Ceiling: 700
Heat Index: 39°   Visibility: 2.5mi
Dew Point: 39°   Wind: 12mph
Humidity: 100%   Direction: 200°SSW
Pressure: 29.47"   Gusts: NA
Location:  56.71°N, 10.12°E
Report Text: EKYT 172320Z 20010KT 4000 BR FEW005 BKN007 04/04 Q0998
Loading
Personal Weather Stations






























Interactive Weather Map New forecast layout! Learn more

10-Day Weather Forecast

Advertisements
Track Severe Weather on mobile